Time;durP1;ratioP1;P1;durP2;ratioP2;P2;SDS_P1;SDS_P2;PMS_P1;PMS_P2;Temp;Humidity;BMP_temperature;BMP_pressure;BME280_temperature;BME280_humidity;BME280_pressure;Samples;Min_cycle;Max_cycle;Signal;HPM_P1;HPM_P2
2023/11/28 00:02:14;;;;;;;1.00;0.60;;;8.70;69.10;;;;;;5042091;28;20184;-51
2023/11/28 00:04:40;;;;;;;0.70;0.53;;;8.80;70.00;;;;;;5042949;28;20263;-51
2023/11/28 00:07:05;;;;;;;0.60;0.43;;;8.60;70.20;;;;;;5044397;28;20187;-50
2023/11/28 00:09:31;;;;;;;1.37;0.50;;;8.80;70.20;;;;;;5043688;28;20307;-51
2023/11/28 00:11:56;;;;;;;0.60;0.60;;;9.00;69.80;;;;;;5045502;28;20192;-50
2023/11/28 00:14:22;;;;;;;0.93;0.70;;;8.90;69.10;;;;;;5043544;28;20184;-50
2023/11/28 00:16:48;;;;;;;0.60;0.60;;;9.00;69.30;;;;;;5040921;28;20183;-47
2023/11/28 00:19:13;;;;;;;0.70;0.53;;;9.10;68.50;;;;;;5041884;28;20209;-50
2023/11/28 00:21:39;;;;;;;0.60;0.60;;;9.20;68.20;;;;;;5040208;28;20184;-47
2023/11/28 00:24:06;;;;;;;0.90;0.70;;;9.00;67.90;;;;;;5045153;28;20217;-50
2023/11/28 00:26:32;;;;;;;0.50;0.50;;;8.90;68.90;;;;;;5039640;28;20315;-49
2023/11/28 00:28:57;;;;;;;0.60;0.50;;;9.10;69.20;;;;;;5043702;28;20538;-47
2023/11/28 00:31:23;;;;;;;0.70;0.50;;;9.20;68.70;;;;;;5037457;28;20626;-51
2023/11/28 00:33:49;;;;;;;0.93;0.50;;;9.30;68.10;;;;;;5043732;28;20716;-49
2023/11/28 00:36:17;;;;;;;0.60;0.60;;;9.40;67.90;;;;;;5043890;28;20212;-50
2023/11/28 00:38:43;;;;;;;0.60;0.60;;;9.40;67.70;;;;;;5046089;28;20205;-46
2023/11/28 00:41:09;;;;;;;1.80;0.50;;;9.30;67.60;;;;;;5048506;28;20443;-47
2023/11/28 00:43:35;;;;;;;1.10;0.73;;;9.50;67.60;;;;;;5046551;28;20216;-48
2023/11/28 00:46:01;;;;;;;0.70;0.70;;;9.50;67.10;;;;;;5045933;28;21343;-48
2023/11/28 00:48:26;;;;;;;0.60;0.60;;;9.50;67.00;;;;;;5048352;28;20203;-49
2023/11/28 00:50:53;;;;;;;0.87;0.77;;;9.50;67.10;;;;;;5049834;28;20181;-49
2023/11/28 00:53:18;;;;;;;0.57;0.50;;;9.50;67.40;;;;;;5040769;28;20228;-48
2023/11/28 00:55:44;;;;;;;0.60;0.60;;;9.50;67.00;;;;;;5046541;28;20485;-51
2023/11/28 00:58:10;;;;;;;2.27;0.80;;;9.40;67.30;;;;;;5046648;28;20679;-48
2023/11/28 01:00:35;;;;;;;0.70;0.70;;;9.50;67.20;;;;;;5044124;28;20208;-49
2023/11/28 01:03:02;;;;;;;0.90;0.70;;;9.60;67.10;;;;;;5048742;28;20310;-49
2023/11/28 01:05:28;;;;;;;0.77;0.77;;;9.60;67.10;;;;;;5042943;28;20224;-48
2023/11/28 01:07:53;;;;;;;0.60;0.60;;;9.60;67.10;;;;;;5047301;28;20427;-47
2023/11/28 01:10:19;;;;;;;1.30;0.70;;;9.60;67.30;;;;;;5047190;28;20270;-49
2023/11/28 01:12:44;;;;;;;1.07;0.60;;;9.60;67.60;;;;;;5044044;28;20231;-50
2023/11/28 01:15:10;;;;;;;1.07;0.67;;;9.50;67.50;;;;;;5046978;28;20273;-48
2023/11/28 01:17:36;;;;;;;0.90;0.80;;;9.40;68.10;;;;;;5044084;28;20189;-49
2023/11/28 01:20:03;;;;;;;0.60;0.60;;;9.40;68.20;;;;;;5046718;28;20467;-48
2023/11/28 01:22:28;;;;;;;0.60;0.60;;;9.50;68.30;;;;;;5048552;28;20556;-49
2023/11/28 01:24:54;;;;;;;0.50;0.50;;;9.40;68.30;;;;;;5049416;28;20486;-49
2023/11/28 01:27:20;;;;;;;1.37;0.60;;;9.30;68.70;;;;;;5047631;28;20184;-49
2023/11/28 01:29:45;;;;;;;1.03;0.93;;;9.50;68.30;;;;;;5048029;28;20211;-47
2023/11/28 01:32:11;;;;;;;0.60;0.60;;;9.30;68.40;;;;;;5045318;28;20210;-49
2023/11/28 01:34:37;;;;;;;0.50;0.50;;;9.20;68.90;;;;;;5045318;28;20242;-48
2023/11/28 01:37:02;;;;;;;0.80;0.80;;;9.10;69.40;;;;;;5046122;28;20185;-48
2023/11/28 01:39:28;;;;;;;0.97;0.80;;;9.30;69.50;;;;;;5045553;28;20524;-48
2023/11/28 01:41:54;;;;;;;1.03;0.60;;;9.30;69.10;;;;;;5045529;28;20180;-48
2023/11/28 01:44:19;;;;;;;0.70;0.60;;;9.30;68.60;;;;;;5047445;28;20500;-49
2023/11/28 01:46:45;;;;;;;0.63;0.60;;;9.20;69.00;;;;;;5044971;28;20181;-51
2023/11/28 01:49:12;;;;;;;0.70;0.70;;;9.30;69.00;;;;;;5044215;28;20204;-47
2023/11/28 01:51:39;;;;;;;0.70;0.60;;;9.50;68.50;;;;;;5048622;28;20455;-48
2023/11/28 01:54:05;;;;;;;0.83;0.83;;;9.40;68.60;;;;;;5053045;28;20897;-47
2023/11/28 01:56:33;;;;;;;1.90;0.60;;;9.50;68.20;;;;;;5046804;28;20448;-48
2023/11/28 01:59:00;;;;;;;0.50;0.50;;;9.60;68.10;;;;;;5043925;28;20466;-48
2023/11/28 02:01:26;;;;;;;0.60;0.60;;;9.50;68.20;;;;;;5041687;28;20852;-48
2023/11/28 02:03:52;;;;;;;0.70;0.70;;;9.60;67.90;;;;;;5044997;28;20484;-49
2023/11/28 02:06:17;;;;;;;0.57;0.50;;;9.70;67.50;;;;;;5038320;28;20193;-49
2023/11/28 02:08:44;;;;;;;0.53;0.50;;;9.90;67.40;;;;;;5046250;28;20528;-49
2023/11/28 02:11:09;;;;;;;0.50;0.50;;;9.90;67.00;;;;;;5044608;28;20176;-49
2023/11/28 02:13:35;;;;;;;2.00;0.70;;;10.00;65.70;;;;;;5046306;28;20776;-50
2023/11/28 02:16:11;;;;;;;0.73;0.70;;;9.80;67.10;;;;;;5043740;28;20184;-48
2023/11/28 02:18:37;;;;;;;0.60;0.60;;;10.00;66.50;;;;;;5044100;28;20250;-48
2023/11/28 02:21:04;;;;;;;0.53;0.43;;;10.00;65.70;;;;;;5042307;28;20807;-50
2023/11/28 02:23:30;;;;;;;0.53;0.53;;;9.90;66.60;;;;;;5047511;28;20454;-50
2023/11/28 02:25:57;;;;;;;0.70;0.60;;;9.70;67.60;;;;;;5042401;28;20885;-49
2023/11/28 02:28:24;;;;;;;3.70;0.73;;;9.90;67.30;;;;;;5046592;28;20438;-49
2023/11/28 02:30:52;;;;;;;0.73;0.70;;;9.70;67.70;;;;;;5048720;28;20459;-50
2023/11/28 02:33:18;;;;;;;1.50;0.80;;;9.50;67.50;;;;;;5046279;28;21041;-49
2023/11/28 02:35:45;;;;;;;1.10;0.87;;;9.30;68.80;;;;;;5043420;28;20515;-50
2023/11/28 02:38:12;;;;;;;0.80;0.80;;;9.40;69.30;;;;;;5044021;28;20194;-49
2023/11/28 02:40:38;;;;;;;0.70;0.70;;;9.70;69.00;;;;;;5042362;28;20461;-49
2023/11/28 02:43:04;;;;;;;0.80;0.80;;;9.60;68.80;;;;;;5043419;28;20443;-50
2023/11/28 02:45:29;;;;;;;0.70;0.70;;;9.60;69.00;;;;;;5044956;28;20557;-48
2023/11/28 02:47:55;;;;;;;0.70;0.70;;;9.80;68.60;;;;;;5047449;28;20250;-51
2023/11/28 02:50:20;;;;;;;1.53;0.70;;;9.90;68.50;;;;;;5045806;28;20205;-50
2023/11/28 02:52:46;;;;;;;1.03;0.70;;;10.00;67.20;;;;;;5045639;28;20184;-50
2023/11/28 02:55:11;;;;;;;0.60;0.60;;;10.10;66.70;;;;;;5046613;28;20228;-47
2023/11/28 02:57:37;;;;;;;0.67;0.67;;;10.10;66.90;;;;;;5041736;28;20196;-50
2023/11/28 03:00:05;;;;;;;0.80;0.80;;;10.00;67.10;;;;;;5043140;28;20253;-48
2023/11/28 03:02:31;;;;;;;0.93;0.70;;;10.00;67.20;;;;;;5047246;28;20191;-49
2023/11/28 03:04:57;;;;;;;0.80;0.70;;;9.90;68.70;;;;;;5042397;28;21256;-49
2023/11/28 03:07:22;;;;;;;1.27;0.80;;;10.10;67.30;;;;;;5043362;28;20517;-51
2023/11/28 03:09:48;;;;;;;0.80;0.80;;;10.00;67.40;;;;;;5042153;28;20201;-52
2023/11/28 03:12:13;;;;;;;0.87;0.77;;;10.00;67.90;;;;;;5037868;28;20190;-48
2023/11/28 03:14:39;;;;;;;0.70;0.70;;;10.00;67.50;;;;;;5043321;28;20187;-47
2023/11/28 03:17:05;;;;;;;0.70;0.70;;;10.10;67.40;;;;;;5044385;28;20183;-47
2023/11/28 03:19:30;;;;;;;1.47;0.80;;;10.20;67.40;;;;;;5044505;28;20330;-47
2023/11/28 03:21:56;;;;;;;1.73;0.70;;;10.20;67.30;;;;;;5043190;28;20211;-49
2023/11/28 03:24:21;;;;;;;0.90;0.80;;;10.20;67.10;;;;;;5042410;28;20227;-47
2023/11/28 03:26:47;;;;;;;1.20;1.07;;;10.30;66.80;;;;;;5042515;28;20181;-48
2023/11/28 03:29:13;;;;;;;0.90;0.80;;;10.00;67.50;;;;;;5043187;28;20227;-47
2023/11/28 03:31:39;;;;;;;0.60;0.50;;;9.90;69.80;;;;;;5041963;28;20222;-48
2023/11/28 03:34:05;;;;;;;1.63;1.00;;;10.00;68.70;;;;;;5045860;28;20448;-47
2023/11/28 03:36:31;;;;;;;0.70;0.67;;;9.90;70.60;;;;;;5044608;28;20200;-48
2023/11/28 03:38:57;;;;;;;0.67;0.60;;;9.70;71.10;;;;;;5042411;28;20483;-50
2023/11/28 03:41:22;;;;;;;0.63;0.63;;;9.80;70.80;;;;;;5046432;28;20203;-49
2023/11/28 03:43:48;;;;;;;0.70;0.60;;;9.80;71.20;;;;;;5040929;28;20271;-49
2023/11/28 03:46:13;;;;;;;0.60;0.60;;;9.70;71.40;;;;;;5042612;28;20664;-48
2023/11/28 03:48:39;;;;;;;0.70;0.70;;;9.50;71.90;;;;;;5041617;28;20208;-48
2023/11/28 03:51:05;;;;;;;0.73;0.73;;;9.60;72.20;;;;;;5045262;28;20799;-48
2023/11/28 03:53:30;;;;;;;1.77;0.80;;;9.70;71.80;;;;;;5045345;28;20250;-48
2023/11/28 03:55:56;;;;;;;1.57;0.70;;;9.90;71.70;;;;;;5047855;28;20219;-49
2023/11/28 03:58:25;;;;;;;0.60;0.60;;;9.80;71.80;;;;;;5039611;28;20219;-47
2023/11/28 04:00:51;;;;;;;0.50;0.50;;;10.00;70.10;;;;;;5042128;28;20950;-49
2023/11/28 04:03:16;;;;;;;0.97;0.93;;;10.20;69.30;;;;;;5042911;28;20518;-47
2023/11/28 04:05:43;;;;;;;1.17;0.73;;;10.20;69.10;;;;;;5042645;28;20248;-51
2023/11/28 04:08:08;;;;;;;0.80;0.80;;;10.30;69.00;;;;;;5042019;28;20188;-47
2023/11/28 04:10:34;;;;;;;0.80;0.80;;;10.40;68.90;;;;;;5046302;28;20953;-48
2023/11/28 04:13:00;;;;;;;0.80;0.60;;;10.40;69.10;;;;;;5046717;28;20241;-46
2023/11/28 04:15:25;;;;;;;0.70;0.70;;;10.30;69.20;;;;;;5046880;28;20275;-48
2023/11/28 04:17:51;;;;;;;2.20;0.70;;;10.40;68.80;;;;;;5048492;28;20192;-47
2023/11/28 04:20:16;;;;;;;2.00;0.77;;;10.60;68.40;;;;;;5044155;28;20221;-47
2023/11/28 04:22:42;;;;;;;0.67;0.67;;;10.70;67.90;;;;;;5050022;28;20188;-48
2023/11/28 04:25:08;;;;;;;2.70;0.93;;;10.70;67.70;;;;;;5047985;28;20216;-49
2023/11/28 04:27:33;;;;;;;0.70;0.60;;;10.80;67.60;;;;;;5047664;28;20181;-47
2023/11/28 04:29:59;;;;;;;1.10;0.80;;;10.80;67.30;;;;;;5049983;28;21039;-49
2023/11/28 04:32:25;;;;;;;2.07;0.77;;;10.90;67.20;;;;;;5047242;28;20314;-48
2023/11/28 04:34:50;;;;;;;1.37;0.83;;;10.90;66.80;;;;;;5044666;28;20176;-48
2023/11/28 04:37:16;;;;;;;1.13;0.70;;;10.90;66.70;;;;;;5048180;28;20188;-48
2023/11/28 04:39:43;;;;;;;0.80;0.80;;;10.80;67.00;;;;;;5044160;28;20219;-48
2023/11/28 04:42:09;;;;;;;0.60;0.60;;;10.80;66.90;;;;;;5047111;28;20427;-48
2023/11/28 04:44:34;;;;;;;1.00;0.70;;;10.80;67.10;;;;;;5047419;28;20881;-48
2023/11/28 04:47:00;;;;;;;2.00;0.80;;;10.80;67.20;;;;;;5047793;28;20668;-50
2023/11/28 04:49:25;;;;;;;1.93;1.10;;;10.80;67.50;;;;;;5046503;28;20243;-50
2023/11/28 04:51:51;;;;;;;1.10;0.70;;;10.70;67.30;;;;;;5045179;28;20215;-49
2023/11/28 04:54:17;;;;;;;1.30;1.00;;;10.60;67.50;;;;;;5049846;28;20574;-49
2023/11/28 04:56:42;;;;;;;1.90;1.50;;;10.40;67.90;;;;;;5045446;28;20496;-47
2023/11/28 04:59:09;;;;;;;1.60;1.00;;;10.30;68.60;;;;;;5043728;28;20753;-48
2023/11/28 05:01:45;;;;;;;0.70;0.70;;;10.30;68.50;;;;;;5042261;28;20212;-49
2023/11/28 05:04:10;;;;;;;1.00;0.90;;;10.10;69.30;;;;;;5045182;28;20474;-47
2023/11/28 05:06:36;;;;;;;0.70;0.70;;;9.90;71.60;;;;;;5041366;28;20423;-48
2023/11/28 05:09:02;;;;;;;1.90;0.50;;;9.70;72.40;;;;;;5044614;28;20204;-47
2023/11/28 05:11:28;;;;;;;0.80;0.70;;;9.60;73.00;;;;;;5040430;28;20740;-46
2023/11/28 05:13:54;;;;;;;0.87;0.87;;;9.60;73.20;;;;;;5045508;28;20453;-50
2023/11/28 05:16:19;;;;;;;0.80;0.60;;;9.50;73.70;;;;;;5047701;28;20196;-49
2023/11/28 05:18:45;;;;;;;0.70;0.60;;;9.40;74.60;;;;;;5043248;28;20671;-49
2023/11/28 05:21:10;;;;;;;0.50;0.50;;;9.50;74.30;;;;;;5045103;28;20558;-46
2023/11/28 05:23:36;;;;;;;0.70;0.70;;;9.40;75.10;;;;;;5043771;28;20661;-49
2023/11/28 05:26:01;;;;;;;0.50;0.50;;;9.40;75.10;;;;;;5043529;28;20212;-46
2023/11/28 05:28:27;;;;;;;0.73;0.63;;;9.40;75.10;;;;;;5047943;28;20193;-49
2023/11/28 05:30:52;;;;;;;0.70;0.70;;;9.30;75.20;;;;;;5047223;28;20181;-47
2023/11/28 05:33:18;;;;;;;1.60;0.70;;;9.10;76.50;;;;;;5047953;28;20188;-47
2023/11/28 05:35:43;;;;;;;1.57;0.93;;;9.20;76.90;;;;;;5045582;28;20251;-49
2023/11/28 05:38:09;;;;;;;1.20;1.10;;;9.20;77.40;;;;;;5045598;28;20554;-48
2023/11/28 05:40:34;;;;;;;1.67;1.30;;;9.30;77.00;;;;;;5043792;28;20200;-47
2023/11/28 05:43:00;;;;;;;1.00;1.00;;;9.40;76.80;;;;;;5043817;28;20588;-49
2023/11/28 05:45:26;;;;;;;1.63;1.30;;;9.30;76.80;;;;;;5043863;28;20972;-49
2023/11/28 05:47:52;;;;;;;1.17;1.17;;;9.20;77.60;;;;;;5045631;28;20211;-49
2023/11/28 05:50:18;;;;;;;1.33;1.23;;;9.10;78.20;;;;;;5046438;28;20213;-49
2023/11/28 05:52:43;;;;;;;2.20;2.10;;;9.30;78.30;;;;;;5044225;28;20501;-49
2023/11/28 05:55:10;;;;;;;1.57;1.47;;;9.30;78.00;;;;;;5048166;28;20208;-47
2023/11/28 05:57:35;;;;;;;2.83;2.63;;;9.20;78.00;;;;;;5044705;28;20885;-47
2023/11/28 06:00:01;;;;;;;2.00;1.90;;;9.30;77.90;;;;;;5047188;28;20278;-48
2023/11/28 06:02:26;;;;;;;1.20;1.20;;;9.20;77.60;;;;;;5042742;28;20195;-47
2023/11/28 06:04:52;;;;;;;1.70;1.60;;;9.20;77.50;;;;;;5049769;28;20212;-48
2023/11/28 06:07:17;;;;;;;1.80;1.70;;;9.10;77.60;;;;;;5045324;28;20668;-49
2023/11/28 06:09:43;;;;;;;2.30;2.20;;;9.20;77.30;;;;;;5048421;28;20630;-46
2023/11/28 06:12:09;;;;;;;2.13;2.00;;;9.00;77.60;;;;;;5046761;28;20571;-47
2023/11/28 06:14:36;;;;;;;2.83;2.63;;;9.10;78.00;;;;;;5047589;28;20561;-49
2023/11/28 06:17:01;;;;;;;2.33;2.13;;;8.90;77.40;;;;;;5046831;28;20189;-47
2023/11/28 06:19:28;;;;;;;2.03;1.83;;;9.00;78.00;;;;;;5044149;28;20443;-47
2023/11/28 06:21:53;;;;;;;2.53;2.33;;;9.20;76.70;;;;;;5045370;28;20563;-48
2023/11/28 06:24:19;;;;;;;4.90;2.97;;;9.10;76.20;;;;;;5043085;28;20474;-48
2023/11/28 06:26:45;;;;;;;2.53;1.73;;;9.10;76.00;;;;;;5046085;28;20184;-49
2023/11/28 06:29:10;;;;;;;1.60;1.50;;;8.70;75.00;;;;;;5045879;28;20200;-48
2023/11/28 06:31:36;;;;;;;2.00;1.33;;;8.70;76.50;;;;;;5041915;28;20857;-50
2023/11/28 06:34:02;;;;;;;1.50;1.40;;;8.90;76.20;;;;;;5045754;28;20224;-48
2023/11/28 06:36:27;;;;;;;1.60;1.50;;;8.80;75.00;;;;;;5045511;28;20184;-48
2023/11/28 06:38:55;;;;;;;0.80;0.80;;;8.80;74.90;;;;;;5040271;28;20227;-50
2023/11/28 06:41:20;;;;;;;0.93;0.93;;;8.60;74.10;;;;;;5047620;28;20184;-46
2023/11/28 06:43:46;;;;;;;1.20;1.10;;;8.40;74.10;;;;;;5042503;28;20930;-49
2023/11/28 06:46:13;;;;;;;0.87;0.83;;;8.40;75.10;;;;;;5042778;28;20189;-47
2023/11/28 06:48:38;;;;;;;1.53;0.80;;;8.50;74.80;;;;;;5045088;28;20197;-48
2023/11/28 06:51:04;;;;;;;0.80;0.80;;;8.50;74.20;;;;;;5047529;28;20565;-47
2023/11/28 06:53:30;;;;;;;0.70;0.70;;;8.40;74.20;;;;;;5047732;28;20267;-47
2023/11/28 06:55:55;;;;;;;1.50;1.00;;;8.50;73.60;;;;;;5043354;28;20799;-51
2023/11/28 06:58:21;;;;;;;1.03;0.90;;;8.50;73.20;;;;;;5046560;28;20302;-50
2023/11/28 07:00:47;;;;;;;0.60;0.60;;;8.60;72.80;;;;;;5040384;28;20208;-49
2023/11/28 07:03:13;;;;;;;0.70;0.70;;;8.00;69.90;;;;;;5042403;28;20199;-49
2023/11/28 07:05:38;;;;;;;1.00;0.90;;;8.00;70.80;;;;;;5044842;28;20997;-47
2023/11/28 07:08:05;;;;;;;1.10;1.00;;;7.90;71.30;;;;;;5040124;28;20242;-48
2023/11/28 07:10:31;;;;;;;0.90;0.90;;;7.90;72.10;;;;;;5043987;28;20563;-48
2023/11/28 07:12:57;;;;;;;1.07;0.97;;;8.00;72.10;;;;;;5041396;28;20439;-51
2023/11/28 07:15:22;;;;;;;1.20;1.00;;;8.10;71.60;;;;;;5042332;28;20652;-49
2023/11/28 07:17:49;;;;;;;0.80;0.80;;;7.90;71.50;;;;;;5045689;28;20534;-50
2023/11/28 07:20:15;;;;;;;1.63;1.20;;;7.80;72.10;;;;;;5038824;28;20288;-47
2023/11/28 07:22:41;;;;;;;1.10;1.00;;;7.80;71.40;;;;;;5046745;28;20521;-47
2023/11/28 07:25:09;;;;;;;1.00;0.90;;;7.60;71.70;;;;;;5039513;28;20586;-48
2023/11/28 07:27:35;;;;;;;1.23;1.13;;;7.60;72.40;;;;;;5041210;28;20173;-50
2023/11/28 07:30:01;;;;;;;1.20;1.10;;;7.80;72.40;;;;;;5047043;28;20455;-48
2023/11/28 07:32:27;;;;;;;1.20;1.10;;;7.80;72.20;;;;;;5044080;28;20423;-48
2023/11/28 07:34:52;;;;;;;1.27;1.20;;;8.00;71.40;;;;;;5044053;28;20433;-47
2023/11/28 07:37:18;;;;;;;1.83;1.73;;;8.00;71.20;;;;;;5042269;28;20435;-47
2023/11/28 07:39:43;;;;;;;0.90;0.90;;;8.10;70.90;;;;;;5041024;28;20307;-49
2023/11/28 07:42:09;;;;;;;1.13;1.03;;;8.20;70.30;;;;;;5043703;28;20630;-50
2023/11/28 07:44:35;;;;;;;1.80;1.00;;;8.10;70.30;;;;;;5045677;28;20748;-47
2023/11/28 07:47:01;;;;;;;2.00;1.30;;;8.00;70.00;;;;;;5046865;28;20636;-48
2023/11/28 07:49:26;;;;;;;2.03;1.37;;;7.90;69.90;;;;;;5045652;28;20204;-47
2023/11/28 07:51:52;;;;;;;1.00;0.87;;;7.90;69.70;;;;;;5045348;28;20230;-47
2023/11/28 07:54:17;;;;;;;1.13;0.93;;;7.90;70.00;;;;;;5045614;28;20209;-48
2023/11/28 07:56:43;;;;;;;1.20;1.10;;;7.90;69.90;;;;;;5045552;28;20194;-49
2023/11/28 07:59:09;;;;;;;1.07;1.03;;;8.10;69.70;;;;;;5047729;28;20232;-47
2023/11/28 08:01:34;;;;;;;1.00;1.00;;;8.00;69.50;;;;;;5048908;28;20180;-50
2023/11/28 08:04:00;;;;;;;1.10;1.00;;;8.00;69.00;;;;;;5035717;28;21023;-49
2023/11/28 08:06:26;;;;;;;1.00;1.00;;;7.90;68.70;;;;;;5043593;28;20967;-50
2023/11/28 08:08:51;;;;;;;1.13;1.13;;;7.80;69.00;;;;;;5042727;28;20299;-49
2023/11/28 08:11:17;;;;;;;2.93;1.50;;;7.70;70.00;;;;;;5047501;28;20208;-47
2023/11/28 08:13:43;;;;;;;1.33;1.23;;;7.70;69.70;;;;;;5043991;28;20188;-51
2023/11/28 08:16:09;;;;;;;1.40;1.30;;;7.50;69.60;;;;;;5046479;28;20444;-48
2023/11/28 08:18:34;;;;;;;1.00;1.00;;;7.50;69.50;;;;;;5047785;28;20200;-51
2023/11/28 08:21:02;;;;;;;2.33;1.13;;;7.60;69.40;;;;;;5044668;28;20427;-49
2023/11/28 08:23:28;;;;;;;1.50;1.40;;;7.40;68.60;;;;;;5045123;28;20233;-45
2023/11/28 08:25:54;;;;;;;4.50;1.33;;;7.60;69.20;;;;;;5046235;28;21048;-49
2023/11/28 08:28:19;;;;;;;2.00;1.60;;;7.50;68.60;;;;;;5044136;28;20458;-49
2023/11/28 08:30:45;;;;;;;1.73;1.63;;;7.80;68.30;;;;;;5043522;28;20230;-48
2023/11/28 08:33:10;;;;;;;1.50;1.37;;;7.60;68.00;;;;;;5037769;28;20189;-49
2023/11/28 08:35:36;;;;;;;1.70;1.60;;;7.50;68.60;;;;;;5048819;28;20195;-50
2023/11/28 08:38:01;;;;;;;1.50;1.40;;;7.50;68.60;;;;;;5043806;28;20193;-49
2023/11/28 08:40:27;;;;;;;3.37;1.80;;;7.40;68.70;;;;;;5036615;28;20219;-47
2023/11/28 08:42:52;;;;;;;1.70;1.60;;;7.30;69.00;;;;;;5043800;28;20688;-47
2023/11/28 08:45:18;;;;;;;1.60;1.50;;;7.20;69.50;;;;;;5045804;28;20216;-49
2023/11/28 08:47:43;;;;;;;2.23;2.03;;;7.10;69.50;;;;;;5045082;28;20180;-51
2023/11/28 08:50:09;;;;;;;1.63;1.53;;;7.00;70.20;;;;;;5041569;28;20201;-47
2023/11/28 08:52:35;;;;;;;1.63;1.53;;;7.00;69.90;;;;;;5046402;28;20993;-52
2023/11/28 08:55:01;;;;;;;1.60;1.50;;;7.00;70.10;;;;;;5047251;28;20473;-50
2023/11/28 08:57:33;;;;;;;1.73;1.63;;;7.00;70.80;;;;;;5041735;28;20835;-49
2023/11/28 09:00:00;;;;;;;1.97;1.70;;;7.00;70.70;;;;;;5036219;28;20193;-50
2023/11/28 09:02:26;;;;;;;2.13;1.40;;;6.70;70.90;;;;;;5038895;28;20891;-47
2023/11/28 09:04:52;;;;;;;1.60;1.50;;;6.80;72.00;;;;;;5043193;28;20506;-49
2023/11/28 09:07:17;;;;;;;1.87;1.77;;;6.80;72.00;;;;;;5041038;28;20186;-51
2023/11/28 09:09:43;;;;;;;2.67;2.47;;;6.80;71.80;;;;;;5048664;28;20291;-49
2023/11/28 09:12:08;;;;;;;1.90;1.80;;;6.70;72.40;;;;;;5043938;28;20170;-49
2023/11/28 09:14:34;;;;;;;2.03;1.87;;;6.70;71.90;;;;;;5045185;28;20196;-51
2023/11/28 09:16:59;;;;;;;1.83;1.73;;;6.80;72.30;;;;;;5048002;28;20199;-49
2023/11/28 09:19:25;;;;;;;2.10;1.90;;;6.70;72.30;;;;;;5047224;28;20207;-50
2023/11/28 09:21:50;;;;;;;1.60;1.50;;;6.80;72.20;;;;;;5046872;28;20188;-48
2023/11/28 09:24:16;;;;;;;1.53;1.30;;;6.80;72.10;;;;;;5046457;28;20221;-50
2023/11/28 09:26:42;;;;;;;1.70;1.60;;;6.70;72.10;;;;;;5045753;28;20180;-46
2023/11/28 09:29:07;;;;;;;1.47;1.37;;;6.80;72.60;;;;;;5044866;28;21994;-49
2023/11/28 09:31:36;;;;;;;1.40;1.30;;;6.80;72.00;;;;;;5044381;28;20806;-49
2023/11/28 09:34:02;;;;;;;1.50;1.40;;;6.90;71.70;;;;;;5041258;28;20264;-49
2023/11/28 09:36:28;;;;;;;1.30;1.20;;;6.90;71.50;;;;;;5042931;28;20436;-50
2023/11/28 09:38:58;;;;;;;1.83;1.10;;;6.90;71.40;;;;;;5038422;28;20463;-49
2023/11/28 09:41:25;;;;;;;1.70;1.60;;;7.00;71.20;;;;;;5042171;28;20230;-51
2023/11/28 09:43:52;;;;;;;2.30;2.10;;;6.80;71.50;;;;;;5042404;28;20441;-49
2023/11/28 09:46:21;;;;;;;2.00;1.90;;;6.80;71.60;;;;;;5043015;28;20451;-50
2023/11/28 09:48:50;;;;;;;1.70;1.60;;;6.90;71.50;;;;;;5038408;28;20474;-49
2023/11/28 09:51:16;;;;;;;1.30;1.20;;;6.80;71.30;;;;;;5045051;28;20447;-49
2023/11/28 09:53:42;;;;;;;2.00;1.40;;;6.80;71.40;;;;;;5041692;28;20554;-48
2023/11/28 09:56:10;;;;;;;2.43;1.20;;;6.90;71.50;;;;;;5042550;28;20890;-50
2023/11/28 09:58:36;;;;;;;1.07;1.07;;;7.00;71.50;;;;;;5046765;28;20479;-53
2023/11/28 10:01:06;;;;;;;1.90;1.27;;;7.20;71.20;;;;;;5046845;28;20467;-50
2023/11/28 10:03:32;;;;;;;2.20;1.20;;;7.10;70.70;;;;;;5045201;28;20431;-51
2023/11/28 10:05:58;;;;;;;2.13;1.93;;;7.00;70.50;;;;;;5043954;28;20485;-49
2023/11/28 10:08:26;;;;;;;2.23;2.03;;;7.00;70.80;;;;;;5044281;28;20435;-49
2023/11/28 10:10:56;;;;;;;2.27;1.97;;;7.20;70.80;;;;;;5046347;28;20988;-51
2023/11/28 10:13:22;;;;;;;2.30;2.10;;;7.30;70.40;;;;;;5044954;28;20451;-52
2023/11/28 10:15:51;;;;;;;2.67;1.20;;;7.40;70.20;;;;;;5047390;28;20443;-54
2023/11/28 10:18:20;;;;;;;1.60;1.50;;;7.30;70.50;;;;;;5036538;28;20474;-52
2023/11/28 10:20:47;;;;;;;3.70;3.07;;;7.30;70.70;;;;;;5047078;28;20986;-51
2023/11/28 10:23:16;;;;;;;2.50;2.30;;;7.20;70.80;;;;;;5039719;28;20540;-48
2023/11/28 10:25:42;;;;;;;3.07;2.10;;;7.30;70.70;;;;;;5047513;28;20504;-51
2023/11/28 10:28:11;;;;;;;1.43;1.33;;;7.20;70.30;;;;;;5044261;28;20445;-49
2023/11/28 10:30:39;;;;;;;1.37;1.27;;;7.10;70.40;;;;;;5046076;28;20196;-49
2023/11/28 10:33:07;;;;;;;2.13;1.37;;;7.00;71.10;;;;;;5040626;28;20555;-48
2023/11/28 10:35:43;;;;;;;2.00;1.90;;;6.80;71.60;;;;;;5036729;28;20443;-50
2023/11/28 10:38:16;;;;;;;2.40;2.23;;;6.90;71.90;;;;;;5042917;28;20454;-52
2023/11/28 10:40:53;;;;;;;1.60;1.50;;;7.10;71.70;;;;;;5042265;28;20443;-52
2023/11/28 10:43:19;;;;;;;1.70;1.60;;;7.00;70.70;;;;;;5038796;28;20462;-50
2023/11/28 10:45:45;;;;;;;1.60;1.50;;;6.90;71.20;;;;;;5045102;28;20483;-54
2023/11/28 10:48:11;;;;;;;1.30;1.20;;;6.90;71.90;;;;;;5045262;28;20212;-47
2023/11/28 10:50:37;;;;;;;3.53;2.10;;;6.90;71.60;;;;;;5040030;28;20492;-52
2023/11/28 10:53:06;;;;;;;1.53;1.43;;;6.80;71.60;;;;;;5040588;28;20873;-50
2023/11/28 10:56:01;;;;;;;2.00;1.80;;;6.80;71.80;;;;;;5046034;28;20608;-52
2023/11/28 10:58:28;;;;;;;2.43;1.60;;;6.80;72.00;;;;;;5039932;28;20439;-50
2023/11/28 11:00:56;;;;;;;4.17;1.80;;;6.90;71.10;;;;;;5045059;28;20439;-50
2023/11/28 11:03:25;;;;;;;2.07;1.90;;;6.90;70.90;;;;;;5038091;28;20428;-51
2023/11/28 11:05:51;;;;;;;3.50;2.20;;;6.80;70.40;;;;;;5041809;28;20510;-50
2023/11/28 11:08:18;;;;;;;2.27;2.07;;;6.70;70.60;;;;;;5043145;28;20469;-49
2023/11/28 11:10:44;;;;;;;2.33;2.13;;;6.60;70.90;;;;;;5044468;28;20419;-52
2023/11/28 11:13:41;;;;;;;2.93;2.00;;;6.40;71.10;;;;;;5045845;28;20802;-49
2023/11/28 11:16:48;;;;;;;2.40;2.30;;;6.40;71.20;;;;;;5040445;28;20188;-52
2023/11/28 11:19:14;;;;;;;1.90;1.80;;;6.40;71.10;;;;;;5040628;28;20461;-49
2023/11/28 11:21:51;;;;;;;2.10;1.87;;;6.30;71.10;;;;;;5042027;28;20430;-51
2023/11/28 11:24:19;;;;;;;2.20;2.00;;;6.50;70.80;;;;;;5040199;28;20480;-48
2023/11/28 11:26:46;;;;;;;2.03;1.90;;;6.50;70.30;;;;;;5038649;28;20448;-52
2023/11/28 11:29:24;;;;;;;1.90;1.80;;;6.60;69.60;;;;;;5043652;28;20452;-48
2023/11/28 11:31:50;;;;;;;2.67;2.40;;;6.70;68.70;;;;;;5038316;28;20434;-53
2023/11/28 11:34:33;;;;;;;2.50;2.30;;;6.80;68.60;;;;;;5040024;28;21792;-49
2023/11/28 11:37:09;;;;;;;2.60;2.40;;;6.70;68.20;;;;;;5038039;28;20443;-52
2023/11/28 11:39:43;;;;;;;2.10;2.00;;;6.60;68.50;;;;;;5040724;28;20499;-53
2023/11/28 11:42:21;;;;;;;3.43;2.43;;;6.70;68.50;;;;;;5041448;28;20431;-48
2023/11/28 11:44:50;;;;;;;4.30;2.63;;;6.60;68.40;;;;;;5038332;28;21253;-48
2023/11/28 11:47:16;;;;;;;2.80;2.60;;;6.40;69.00;;;;;;5037130;28;20947;-50
2023/11/28 11:49:46;;;;;;;2.13;2.03;;;6.50;69.70;;;;;;5046261;28;20454;-52
2023/11/28 11:52:15;;;;;;;3.23;2.93;;;6.40;68.90;;;;;;5043320;28;20508;-47
2023/11/28 11:54:43;;;;;;;2.50;2.30;;;6.50;68.30;;;;;;5046120;28;20505;-48
2023/11/28 11:57:10;;;;;;;2.03;1.83;;;6.50;68.40;;;;;;5042943;28;20427;-52
2023/11/28 11:59:36;;;;;;;2.57;2.37;;;6.30;68.10;;;;;;5043111;28;20493;-51
2023/11/28 12:02:01;;;;;;;3.17;2.87;;;6.20;69.40;;;;;;5038973;28;20545;-52
2023/11/28 12:04:31;;;;;;;2.40;2.20;;;6.20;70.10;;;;;;5041491;28;20570;-49
2023/11/28 12:07:03;;;;;;;3.43;3.10;;;6.30;70.20;;;;;;5044457;28;20185;-51
2023/11/28 12:09:29;;;;;;;2.87;2.67;;;6.50;69.60;;;;;;5042816;28;20462;-49
2023/11/28 12:11:55;;;;;;;2.47;2.27;;;6.80;68.70;;;;;;5044382;28;20966;-49
2023/11/28 12:14:21;;;;;;;2.73;2.53;;;6.80;68.40;;;;;;5040639;28;20438;-48
2023/11/28 12:16:46;;;;;;;3.07;2.90;;;6.70;67.20;;;;;;5043685;28;20199;-50
2023/11/28 12:19:12;;;;;;;3.00;2.80;;;6.70;68.10;;;;;;5045113;28;20208;-49
2023/11/28 12:21:37;;;;;;;3.27;3.07;;;6.60;67.90;;;;;;5038070;28;20189;-50
2023/11/28 12:24:03;;;;;;;3.30;3.10;;;6.70;68.00;;;;;;5042832;28;20242;-51
2023/11/28 12:26:29;;;;;;;3.57;3.37;;;6.70;67.30;;;;;;5039663;28;20652;-48
2023/11/28 12:28:54;;;;;;;3.80;3.20;;;6.70;67.80;;;;;;5044183;28;20197;-51
2023/11/28 12:31:20;;;;;;;3.70;3.40;;;6.80;67.60;;;;;;5041423;28;20610;-47
2023/11/28 12:33:45;;;;;;;3.10;2.80;;;6.80;67.30;;;;;;5048813;28;20187;-49
2023/11/28 12:36:14;;;;;;;3.40;3.10;;;6.70;67.00;;;;;;5047029;28;20186;-50
2023/11/28 12:38:40;;;;;;;3.60;3.30;;;6.70;67.00;;;;;;5049775;28;20212;-49
2023/11/28 12:41:06;;;;;;;3.83;3.30;;;6.70;67.40;;;;;;5044474;28;20625;-48
2023/11/28 12:43:35;;;;;;;3.37;3.07;;;6.70;67.70;;;;;;5047329;28;20988;-51
2023/11/28 12:46:01;;;;;;;3.40;3.10;;;6.60;67.50;;;;;;5044749;28;20220;-49
2023/11/28 12:48:27;;;;;;;2.90;2.70;;;6.60;67.70;;;;;;5047864;28;20426;-50
2023/11/28 12:50:53;;;;;;;2.60;2.40;;;6.50;67.70;;;;;;5040719;28;20487;-49
2023/11/28 12:53:24;;;;;;;2.97;2.77;;;6.60;67.90;;;;;;5040780;28;20890;-49